Gaylord, Kansas
Current Conditions -  °F | °C
As of 9:53 PM on Thursday 18 Dec 2014 (Local Time) from KRSL Reporting Station
Haze Haze  
Wind Chill: 23°   Ceiling: 1300
Heat Index: 30°   Visibility: 6mi
Dew Point: 29°   Wind: 7mph
Humidity: 96%   Direction: 160°SSE
Pressure: 30.19"   Gusts: NA
Location:  39.64°N, 98.85°W
Report Text: KRSL 190353Z AUTO 16006KT 6SM BR OVC013 M01/M02 A3019 RMK AO2 SLP245 T10111017
Loading
Personal Weather Stations






























Interactive Weather Map New forecast layout! Learn more

10-Day Weather Forecast

Advertisements
Track Severe Weather on mobile